createdAt,value
2018-07-10T00:00:04.836Z,0
2018-07-10T00:00:45.371Z,0
2018-07-10T00:01:25.910Z,0
2018-07-10T00:02:06.437Z,0
2018-07-10T00:02:46.967Z,0
2018-07-10T00:03:27.478Z,0
2018-07-10T00:04:08.032Z,0
2018-07-10T00:04:48.549Z,0
2018-07-10T00:05:29.084Z,0
2018-07-10T00:06:09.599Z,0
2018-07-10T00:06:50.119Z,0
2018-07-10T00:07:30.657Z,0
2018-07-10T00:08:11.280Z,0
2018-07-10T00:08:51.724Z,0
2018-07-10T00:09:32.248Z,0
2018-07-10T00:10:12.789Z,0
2018-07-10T00:10:53.311Z,0
2018-07-10T00:11:33.842Z,0
2018-07-10T00:12:14.392Z,0
2018-07-10T00:12:54.919Z,0
2018-07-10T00:13:35.454Z,0
2018-07-10T00:14:15.972Z,0
2018-07-10T00:14:56.522Z,0
2018-07-10T00:15:37.044Z,0
2018-07-10T00:16:17.556Z,0
2018-07-10T00:16:58.080Z,0
2018-07-10T00:17:38.595Z,0
2018-07-10T00:18:19.117Z,0
2018-07-10T00:18:59.650Z,0
2018-07-10T00:19:40.170Z,0
2018-07-10T00:20:20.686Z,0
2018-07-10T00:21:01.227Z,0
2018-07-10T00:21:41.761Z,0
2018-07-10T00:22:22.277Z,0
2018-07-10T00:23:02.810Z,0
2018-07-10T00:23:43.330Z,0
2018-07-10T00:24:23.840Z,0
2018-07-10T00:25:04.367Z,0
2018-07-10T00:25:44.893Z,0
2018-07-10T00:26:25.418Z,0
2018-07-10T00:27:05.923Z,0
2018-07-10T00:27:46.435Z,0
2018-07-10T00:28:26.973Z,0
2018-07-10T00:29:07.492Z,0
2018-07-10T00:29:48.022Z,0
2018-07-10T00:30:28.540Z,0
2018-07-10T00:31:09.064Z,0
2018-07-10T00:31:49.586Z,0
2018-07-10T00:32:30.115Z,0
2018-07-10T00:33:10.633Z,0
2018-07-10T00:33:51.149Z,0
2018-07-10T00:34:31.666Z,0
2018-07-10T00:35:12.196Z,0
2018-07-10T00:35:52.815Z,0
2018-07-10T00:36:33.345Z,0
2018-07-10T00:37:13.881Z,0
2018-07-10T00:37:54.428Z,0
2018-07-10T00:38:34.956Z,0
2018-07-10T00:39:15.477Z,0
2018-07-10T00:39:55.987Z,0
2018-07-10T00:40:36.514Z,0
2018-07-10T00:41:17.110Z,0
2018-07-10T00:41:57.645Z,0
2018-07-10T00:42:38.176Z,0
2018-07-10T00:43:18.716Z,0
2018-07-10T00:43:59.270Z,0
2018-07-10T00:44:39.785Z,0
2018-07-10T00:45:20.301Z,0
2018-07-10T00:46:00.806Z,0
2018-07-10T00:46:41.337Z,0
2018-07-10T00:47:21.855Z,0
2018-07-10T00:48:02.385Z,0
2018-07-10T00:48:42.900Z,0
2018-07-10T00:49:23.443Z,0
2018-07-10T00:50:03.963Z,0
2018-07-10T00:50:44.496Z,0
2018-07-10T00:51:25.017Z,0
2018-07-10T00:52:05.523Z,0
2018-07-10T00:52:46.066Z,0
2018-07-10T00:53:26.596Z,0
2018-07-10T00:54:07.121Z,0
2018-07-10T00:54:47.678Z,0
2018-07-10T00:55:28.181Z,0
2018-07-10T00:56:08.714Z,0
2018-07-10T00:56:49.219Z,0
2018-07-10T00:57:29.776Z,0
2018-07-10T00:58:10.293Z,0
2018-07-10T00:58:50.815Z,0
2018-07-10T00:59:31.339Z,0
2018-07-10T01:00:11.845Z,0
2018-07-10T01:00:52.373Z,0
2018-07-10T01:01:32.913Z,0
2018-07-10T01:02:13.447Z,0
2018-07-10T01:02:53.981Z,0
2018-07-10T01:03:34.533Z,0
2018-07-10T01:04:15.038Z,0
2018-07-10T01:04:55.579Z,0
2018-07-10T01:05:36.110Z,0
2018-07-10T01:06:16.637Z,0
2018-07-10T01:06:57.161Z,0
2018-07-10T01:07:37.690Z,0
2018-07-10T01:08:18.215Z,0
2018-07-10T01:08:58.743Z,0
2018-07-10T01:09:39.266Z,0
2018-07-10T01:10:19.802Z,0
2018-07-10T01:11:00.331Z,0
2018-07-10T01:11:40.849Z,0
2018-07-10T01:12:21.369Z,0
2018-07-10T01:13:01.905Z,0
2018-07-10T01:13:42.423Z,0
2018-07-10T01:14:22.957Z,0
2018-07-10T01:15:03.493Z,0
2018-07-10T01:15:44.023Z,0
2018-07-10T01:16:24.542Z,0
2018-07-10T01:17:05.074Z,0
2018-07-10T01:17:45.608Z,0
2018-07-10T01:18:26.129Z,0
2018-07-10T01:19:06.653Z,0
2018-07-10T01:19:47.183Z,0
2018-07-10T01:20:27.699Z,0
2018-07-10T01:21:08.233Z,0
2018-07-10T01:21:48.755Z,0
2018-07-10T01:22:29.264Z,0
2018-07-10T01:23:09.788Z,0
2018-07-10T01:23:50.295Z,0
2018-07-10T01:24:30.831Z,0
2018-07-10T01:25:11.375Z,0
2018-07-10T01:25:51.890Z,0
2018-07-10T01:26:32.408Z,0
2018-07-10T01:27:12.935Z,0
2018-07-10T01:27:53.458Z,0
2018-07-10T01:28:33.979Z,0
2018-07-10T01:29:14.507Z,0
2018-07-10T01:29:55.029Z,0
2018-07-10T01:30:35.562Z,0
2018-07-10T01:31:16.101Z,0
2018-07-10T01:31:56.627Z,0
2018-07-10T01:32:37.164Z,0
2018-07-10T01:33:17.684Z,0
2018-07-10T01:33:58.208Z,0
2018-07-10T01:34:38.739Z,0
2018-07-10T01:35:19.268Z,0
2018-07-10T01:35:59.799Z,0
2018-07-10T01:36:40.326Z,0
2018-07-10T01:37:20.835Z,0
2018-07-10T01:38:01.362Z,0
2018-07-10T01:38:41.882Z,0
2018-07-10T01:39:22.450Z,0
2018-07-10T01:40:02.926Z,0
2018-07-10T01:40:43.449Z,0
2018-07-10T01:41:23.962Z,0
2018-07-10T01:42:04.487Z,0
2018-07-10T01:42:45.008Z,0
2018-07-10T01:43:25.530Z,0
2018-07-10T01:44:06.061Z,0
2018-07-10T01:44:46.576Z,0
2018-07-10T01:45:27.094Z,0
2018-07-10T01:46:07.615Z,0
2018-07-10T01:46:48.139Z,0
2018-07-10T01:47:28.670Z,0
2018-07-10T01:48:09.193Z,0
2018-07-10T01:48:49.734Z,0
2018-07-10T01:49:30.242Z,0
2018-07-10T01:50:10.769Z,0
2018-07-10T01:50:51.290Z,0
2018-07-10T01:51:31.814Z,0
2018-07-10T01:52:12.328Z,0
2018-07-10T01:52:52.865Z,0
2018-07-10T01:53:33.386Z,0
2018-07-10T01:54:13.897Z,0
2018-07-10T01:54:54.431Z,0
2018-07-10T01:55:34.984Z,0
2018-07-10T01:56:15.504Z,0
2018-07-10T01:56:56.020Z,0
2018-07-10T01:57:36.560Z,0
2018-07-10T01:58:17.096Z,0
2018-07-10T01:58:57.611Z,0
2018-07-10T01:59:38.139Z,0
2018-07-10T02:00:18.659Z,0
2018-07-10T02:00:59.222Z,0
2018-07-10T02:01:39.717Z,0
2018-07-10T02:02:20.247Z,0
2018-07-10T02:03:00.772Z,0
2018-07-10T02:03:41.292Z,0
2018-07-10T02:04:21.822Z,0
2018-07-10T02:05:02.392Z,0
2018-07-10T02:05:42.920Z,0
2018-07-10T02:06:23.432Z,0
2018-07-10T02:07:03.954Z,0
2018-07-10T02:07:45.352Z,0
2018-07-10T02:08:25.863Z,0
2018-07-10T02:09:06.405Z,0
2018-07-10T02:09:46.928Z,0
2018-07-10T02:10:27.445Z,0
2018-07-10T02:11:07.971Z,0
2018-07-10T02:11:48.483Z,0
2018-07-10T02:12:29.020Z,0
2018-07-10T02:13:09.517Z,0
2018-07-10T02:13:50.044Z,0
2018-07-10T02:14:30.564Z,0
2018-07-10T02:15:11.121Z,0
2018-07-10T02:15:51.637Z,0
2018-07-10T02:16:32.165Z,0
2018-07-10T02:17:12.697Z,0
2018-07-10T02:17:53.218Z,0
2018-07-10T02:18:33.729Z,0
2018-07-10T02:19:14.255Z,0
2018-07-10T02:19:54.765Z,0
2018-07-10T02:20:35.290Z,0
2018-07-10T02:21:15.812Z,0
2018-07-10T02:21:56.355Z,0
2018-07-10T02:22:36.895Z,0
2018-07-10T02:23:17.410Z,0
2018-07-10T02:23:57.945Z,0
2018-07-10T02:24:38.457Z,0
2018-07-10T02:25:18.985Z,0
2018-07-10T02:25:59.512Z,0
2018-07-10T02:26:40.039Z,0
2018-07-10T02:27:20.563Z,0
2018-07-10T02:28:01.088Z,0
2018-07-10T02:28:41.607Z,0
2018-07-10T02:29:22.146Z,0
2018-07-10T02:30:02.669Z,0
2018-07-10T02:30:43.195Z,0
2018-07-10T02:31:23.714Z,0
2018-07-10T02:32:04.244Z,0
2018-07-10T02:32:44.768Z,0
2018-07-10T02:33:25.294Z,0
2018-07-10T02:34:05.815Z,0
2018-07-10T02:34:46.331Z,0
2018-07-10T02:35:26.862Z,0
2018-07-10T02:36:07.377Z,0
2018-07-10T02:36:47.916Z,0
2018-07-10T02:37:28.436Z,0
2018-07-10T02:38:08.957Z,0
2018-07-10T02:38:49.503Z,0
2018-07-10T02:39:30.043Z,0
2018-07-10T02:40:10.580Z,0
2018-07-10T02:40:51.126Z,0
2018-07-10T02:41:31.652Z,0
2018-07-10T02:42:12.156Z,0
2018-07-10T02:42:52.681Z,0
2018-07-10T02:43:33.182Z,0
2018-07-10T02:44:13.696Z,0
2018-07-10T02:44:54.212Z,0
2018-07-10T02:45:34.738Z,0
2018-07-10T02:46:15.264Z,0
2018-07-10T02:46:55.793Z,0
2018-07-10T02:47:36.324Z,0
2018-07-10T02:48:16.864Z,0
2018-07-10T02:48:57.400Z,0
2018-07-10T02:49:37.920Z,0
2018-07-10T02:50:18.436Z,0
2018-07-10T02:50:58.969Z,0
2018-07-10T02:51:39.490Z,0
2018-07-10T02:52:20.025Z,0
2018-07-10T02:53:00.538Z,0
2018-07-10T02:53:41.057Z,0
2018-07-10T02:54:21.587Z,0
2018-07-10T02:55:02.104Z,0
2018-07-10T02:55:42.637Z,0
2018-07-10T02:56:23.164Z,0
2018-07-10T02:57:03.687Z,0
2018-07-10T02:57:44.200Z,0
2018-07-10T02:58:24.729Z,0
2018-07-10T02:59:05.265Z,0
2018-07-10T02:59:45.795Z,0
2018-07-10T03:00:26.326Z,0
2018-07-10T03:01:06.863Z,0
2018-07-10T03:01:47.387Z,0
2018-07-10T03:02:27.912Z,0
2018-07-10T03:03:08.453Z,0
2018-07-10T03:03:48.962Z,0
2018-07-10T03:04:29.543Z,0
2018-07-10T03:05:10.074Z,0
2018-07-10T03:05:50.594Z,0
2018-07-10T03:06:31.119Z,0
2018-07-10T03:07:11.643Z,0
2018-07-10T03:07:52.183Z,0
2018-07-10T03:08:32.705Z,0
2018-07-10T03:09:13.234Z,0
2018-07-10T03:09:53.749Z,0
2018-07-10T03:10:34.258Z,0
2018-07-10T03:11:14.799Z,0
2018-07-10T03:11:55.324Z,0
2018-07-10T03:12:35.849Z,0
2018-07-10T03:13:16.373Z,0
2018-07-10T03:13:56.878Z,0
2018-07-10T03:14:37.401Z,0
2018-07-10T03:15:17.935Z,4
2018-07-10T03:15:58.445Z,4
2018-07-10T03:16:38.974Z,4
2018-07-10T03:17:19.518Z,4
2018-07-10T03:18:00.038Z,0
2018-07-10T03:18:40.562Z,0
2018-07-10T03:19:21.084Z,0
2018-07-10T03:20:01.620Z,4
2018-07-10T03:20:42.127Z,4
2018-07-10T03:21:22.652Z,4
2018-07-10T03:22:03.167Z,4
2018-07-10T03:22:43.693Z,4
2018-07-10T03:23:24.222Z,4
2018-07-10T03:24:04.735Z,8
2018-07-10T03:24:45.278Z,4
2018-07-10T03:25:25.802Z,8
2018-07-10T03:26:06.323Z,8
2018-07-10T03:26:46.842Z,8
2018-07-10T03:27:27.364Z,8
2018-07-10T03:28:07.893Z,8
2018-07-10T03:28:48.406Z,12
2018-07-10T03:29:28.929Z,12
2018-07-10T03:30:09.443Z,12
2018-07-10T03:30:49.959Z,12
2018-07-10T03:31:30.480Z,12
2018-07-10T03:32:11.004Z,16
2018-07-10T03:32:51.524Z,16
2018-07-10T03:33:32.044Z,16
2018-07-10T03:34:12.576Z,16
2018-07-10T03:34:53.146Z,20
2018-07-10T03:35:33.701Z,20
2018-07-10T03:36:14.227Z,20
2018-07-10T03:36:54.765Z,24
2018-07-10T03:37:35.292Z,24
2018-07-10T03:38:15.811Z,24
2018-07-10T03:38:56.328Z,24
2018-07-10T03:39:36.860Z,24
2018-07-10T03:40:17.387Z,28
2018-07-10T03:40:57.916Z,28
2018-07-10T03:41:38.418Z,32
2018-07-10T03:42:18.959Z,36
2018-07-10T03:42:59.485Z,36
2018-07-10T03:43:40.013Z,40
2018-07-10T03:44:20.727Z,40
2018-07-10T03:45:01.250Z,44
2018-07-10T03:45:41.781Z,44
2018-07-10T03:46:22.293Z,48
2018-07-10T03:47:02.804Z,48
2018-07-10T03:47:43.311Z,48
2018-07-10T03:48:23.848Z,48
2018-07-10T03:49:04.392Z,48
2018-07-10T03:49:44.917Z,52
2018-07-10T03:50:25.432Z,52
2018-07-10T03:51:05.951Z,48
2018-07-10T03:51:46.471Z,52
2018-07-10T03:52:26.996Z,52
2018-07-10T03:53:07.542Z,56
2018-07-10T03:53:48.063Z,56
2018-07-10T03:54:28.602Z,56
2018-07-10T03:55:09.128Z,60
2018-07-10T03:55:49.663Z,60
2018-07-10T03:56:30.186Z,64
2018-07-10T03:57:10.707Z,64
2018-07-10T03:57:51.227Z,68
2018-07-10T03:58:31.779Z,72
2018-07-10T03:59:12.315Z,72
2018-07-10T03:59:52.877Z,76
2018-07-10T04:00:33.429Z,80
2018-07-10T04:01:13.941Z,84
2018-07-10T04:01:54.480Z,92
2018-07-10T04:02:35.021Z,96
2018-07-10T04:03:15.568Z,96
2018-07-10T04:03:56.087Z,104
2018-07-10T04:04:36.708Z,104
2018-07-10T04:05:17.217Z,112
2018-07-10T04:05:57.746Z,112
2018-07-10T04:06:38.267Z,116
2018-07-10T04:07:18.912Z,124
2018-07-10T04:07:59.435Z,128
2018-07-10T04:08:39.962Z,132
2018-07-10T04:09:20.499Z,140
2018-07-10T04:10:01.018Z,144
2018-07-10T04:10:41.540Z,144
2018-07-10T04:11:22.062Z,144
2018-07-10T04:12:02.590Z,144
2018-07-10T04:12:43.118Z,148
2018-07-10T04:13:23.639Z,144
2018-07-10T04:14:04.165Z,140
2018-07-10T04:14:44.690Z,136
2018-07-10T04:15:25.220Z,136
2018-07-10T04:16:05.760Z,132
2018-07-10T04:16:46.294Z,132
2018-07-10T04:17:26.833Z,136
2018-07-10T04:18:07.357Z,132
2018-07-10T04:18:47.898Z,132
2018-07-10T04:19:28.459Z,132
2018-07-10T04:20:09.010Z,132
2018-07-10T04:20:49.507Z,128
2018-07-10T04:21:30.033Z,124
2018-07-10T04:22:10.558Z,124
2018-07-10T04:22:51.078Z,124
2018-07-10T04:23:31.615Z,124
2018-07-10T04:24:12.129Z,120
2018-07-10T04:24:52.817Z,120
2018-07-10T04:25:33.340Z,120
2018-07-10T04:26:13.860Z,116
2018-07-10T04:26:54.383Z,120
2018-07-10T04:27:34.901Z,120
2018-07-10T04:28:15.415Z,120
2018-07-10T04:28:55.940Z,120
2018-07-10T04:29:36.451Z,120
2018-07-10T04:30:16.977Z,120
2018-07-10T04:30:57.487Z,124
2018-07-10T04:31:38.030Z,124
2018-07-10T04:32:19.240Z,128
2018-07-10T04:32:59.744Z,128
2018-07-10T04:33:40.264Z,132
2018-07-10T04:34:20.794Z,132
2018-07-10T04:35:01.318Z,136
2018-07-10T04:35:41.852Z,136
2018-07-10T04:36:22.371Z,136
2018-07-10T04:37:02.960Z,140
2018-07-10T04:37:43.426Z,136
2018-07-10T04:38:23.941Z,136
2018-07-10T04:39:04.461Z,136
2018-07-10T04:39:44.976Z,132
2018-07-10T04:40:25.503Z,128
2018-07-10T04:41:06.023Z,128
2018-07-10T04:41:46.543Z,124
2018-07-10T04:42:27.263Z,124
2018-07-10T04:43:07.591Z,120
2018-07-10T04:43:48.122Z,120
2018-07-10T04:44:28.677Z,120
2018-07-10T04:45:09.201Z,120
2018-07-10T04:45:49.721Z,120
2018-07-10T04:46:30.244Z,120
2018-07-10T04:47:10.761Z,116
2018-07-10T04:47:51.286Z,116
2018-07-10T04:48:31.805Z,116
2018-07-10T04:49:12.377Z,112
2018-07-10T04:49:52.843Z,112
2018-07-10T04:50:33.376Z,108
2018-07-10T04:51:13.883Z,104
2018-07-10T04:51:54.400Z,100
2018-07-10T04:52:34.919Z,96
2018-07-10T04:53:15.453Z,96
2018-07-10T04:53:55.966Z,88
2018-07-10T04:54:36.506Z,84
2018-07-10T04:55:17.045Z,80
2018-07-10T04:55:57.554Z,76
2018-07-10T04:56:38.085Z,68
2018-07-10T04:57:18.607Z,64
2018-07-10T04:57:59.143Z,64
2018-07-10T04:58:39.665Z,60
2018-07-10T04:59:20.201Z,56
2018-07-10T05:00:00.725Z,52
2018-07-10T05:00:41.242Z,52
2018-07-10T05:01:21.855Z,48
2018-07-10T05:02:02.421Z,48
2018-07-10T05:02:42.938Z,44
2018-07-10T05:03:23.539Z,44
2018-07-10T05:04:04.002Z,40
2018-07-10T05:04:44.542Z,44
2018-07-10T05:05:25.052Z,52
2018-07-10T05:06:05.562Z,52
2018-07-10T05:06:46.094Z,60
2018-07-10T05:07:26.620Z,64
2018-07-10T05:08:07.154Z,72
2018-07-10T05:08:47.670Z,80
2018-07-10T05:09:28.292Z,84
2018-07-10T05:10:09.579Z,92
2018-07-10T05:10:49.283Z,92
2018-07-10T05:11:29.819Z,92
2018-07-10T05:12:10.461Z,92
2018-07-10T05:12:50.869Z,92
2018-07-10T05:13:31.477Z,96
2018-07-10T05:14:11.896Z,96
2018-07-10T05:14:52.420Z,108
2018-07-10T05:15:32.940Z,108
2018-07-10T05:16:13.448Z,112
2018-07-10T05:16:53.977Z,108
2018-07-10T05:17:34.510Z,112
2018-07-10T05:18:15.037Z,112
2018-07-10T05:18:55.541Z,120
2018-07-10T05:19:36.091Z,120
2018-07-10T05:20:16.621Z,116
2018-07-10T05:20:57.172Z,108
2018-07-10T05:21:37.703Z,108
2018-07-10T05:22:18.225Z,100
2018-07-10T05:22:58.774Z,96
2018-07-10T05:23:39.271Z,88
2018-07-10T05:24:19.788Z,80
2018-07-10T05:25:00.317Z,72
2018-07-10T05:25:40.831Z,72
2018-07-10T05:26:21.360Z,72
2018-07-10T05:27:01.870Z,72
2018-07-10T05:27:42.387Z,72
2018-07-10T05:28:22.898Z,72
2018-07-10T05:29:03.494Z,72
2018-07-10T05:29:43.929Z,80
2018-07-10T05:30:24.454Z,88
2018-07-10T05:31:04.995Z,88
2018-07-10T05:31:45.499Z,92
2018-07-10T05:32:26.038Z,96
2018-07-10T05:34:44.434Z,128
2018-07-10T05:35:24.960Z,144
2018-07-10T05:36:05.468Z,156
2018-07-10T05:36:46.029Z,176
2018-07-10T05:37:26.582Z,188
2018-07-10T05:38:07.135Z,204
2018-07-10T05:38:47.678Z,220
2018-07-10T05:39:28.192Z,232
2018-07-10T05:40:08.714Z,244
2018-07-10T05:40:49.231Z,252
2018-07-10T05:41:29.749Z,268
2018-07-10T05:42:10.265Z,280
2018-07-10T05:42:50.785Z,284
2018-07-10T05:43:31.302Z,300
2018-07-10T05:44:11.826Z,320
2018-07-10T05:44:52.335Z,324
2018-07-10T05:45:32.847Z,328
2018-07-10T05:46:13.369Z,332
2018-07-10T05:46:53.884Z,356
2018-07-10T05:47:34.428Z,368
2018-07-10T05:48:14.951Z,352
2018-07-10T05:48:55.517Z,360
2018-07-10T05:49:36.053Z,372
2018-07-10T05:50:16.563Z,380
2018-07-10T05:50:57.072Z,372
2018-07-10T05:51:37.680Z,384
2018-07-10T05:52:18.136Z,380
2018-07-10T05:52:58.695Z,404
2018-07-10T05:53:39.206Z,392
2018-07-10T05:54:19.723Z,416
2018-07-10T05:55:00.231Z,428
2018-07-10T05:55:40.755Z,448
2018-07-10T05:56:21.285Z,452
2018-07-10T05:57:01.756Z,464
2018-07-10T05:57:42.233Z,480
2018-07-10T05:58:22.713Z,508
2018-07-10T05:59:03.241Z,520
2018-07-10T05:59:43.741Z,552
2018-07-10T06:00:24.242Z,552
2018-07-10T06:01:04.748Z,564
2018-07-10T06:01:45.244Z,584
2018-07-10T06:02:25.742Z,584
2018-07-10T06:03:06.246Z,588
2018-07-10T06:03:46.748Z,568
2018-07-10T06:04:27.298Z,580
2018-07-10T06:05:07.752Z,580
2018-07-10T06:05:48.276Z,568
2018-07-10T06:06:28.714Z,560
2018-07-10T06:07:09.241Z,556
2018-07-10T06:07:49.747Z,532
2018-07-10T06:08:30.221Z,508
2018-07-10T06:09:10.730Z,480
2018-07-10T06:09:51.491Z,468
2018-07-10T06:10:32.039Z,476
2018-07-10T06:11:12.457Z,440
2018-07-10T06:11:52.940Z,428
2018-07-10T06:12:33.530Z,420
2018-07-10T06:13:13.947Z,392
2018-07-10T06:13:54.518Z,380
2018-07-10T06:14:34.976Z,332
2018-07-10T06:15:15.536Z,324
2018-07-10T06:15:56.015Z,296
2018-07-10T06:16:36.520Z,300
2018-07-10T06:17:16.998Z,296
2018-07-10T06:17:57.562Z,296
2018-07-10T06:18:38.108Z,304
2018-07-10T06:19:18.649Z,316
2018-07-10T06:19:59.143Z,332
2018-07-10T06:20:39.638Z,364
2018-07-10T06:21:20.110Z,380
2018-07-10T06:22:00.614Z,400
2018-07-10T06:22:41.158Z,412
2018-07-10T06:23:21.610Z,432
2018-07-10T06:24:02.126Z,452
2018-07-10T06:24:42.669Z,488
2018-07-10T06:25:23.189Z,500
2018-07-10T06:26:03.704Z,532
2018-07-10T06:26:44.214Z,564
2018-07-10T06:27:24.712Z,612
2018-07-10T06:28:05.207Z,656
2018-07-10T06:28:45.790Z,684
2018-07-10T06:29:26.323Z,748
2018-07-10T06:30:06.852Z,816
2018-07-10T06:30:47.313Z,900
2018-07-10T06:31:27.849Z,944
2018-07-10T06:32:08.304Z,1032
2018-07-10T06:32:48.793Z,1144
2018-07-10T06:33:29.320Z,1228
2018-07-10T06:34:09.780Z,1256
2018-07-10T06:34:50.311Z,1344
2018-07-10T06:35:30.804Z,1416
2018-07-10T06:36:11.350Z,1480
2018-07-10T06:36:51.877Z,1456
2018-07-10T06:37:32.406Z,1600
2018-07-10T06:38:12.930Z,1508
2018-07-10T06:38:53.450Z,1568
2018-07-10T06:39:33.979Z,1604
2018-07-10T06:40:14.524Z,1636
2018-07-10T06:40:55.053Z,1744
2018-07-10T06:41:35.558Z,1748
2018-07-10T06:42:16.062Z,1756
2018-07-10T06:42:56.582Z,1732
2018-07-10T06:43:37.103Z,1764
2018-07-10T06:44:17.621Z,1732
2018-07-10T06:44:58.153Z,1708
2018-07-10T06:45:38.730Z,1708
2018-07-10T06:46:19.175Z,1608
2018-07-10T06:46:59.757Z,1452
2018-07-10T06:47:40.261Z,1340
2018-07-10T06:48:20.795Z,1208
2018-07-10T06:49:01.355Z,1084
2018-07-10T06:49:41.869Z,988
2018-07-10T06:50:22.410Z,932
2018-07-10T06:51:02.953Z,880
2018-07-10T06:51:43.428Z,856
2018-07-10T06:52:24.083Z,832
2018-07-10T06:53:04.765Z,884
2018-07-10T06:53:45.019Z,960
2018-07-10T06:54:25.518Z,1044
2018-07-10T06:55:06.109Z,1152
2018-07-10T06:55:46.658Z,1192
2018-07-10T06:56:27.207Z,1248
2018-07-10T06:57:07.720Z,1288
2018-07-10T06:57:48.246Z,1420
2018-07-10T06:58:28.815Z,1480
2018-07-10T06:59:09.277Z,1604
2018-07-10T06:59:49.800Z,1692
2018-07-10T07:00:30.328Z,1748
2018-07-10T07:01:10.847Z,1864
2018-07-10T07:01:51.341Z,1964
2018-07-10T07:02:31.885Z,1748
2018-07-10T07:03:12.382Z,1752
2018-07-10T07:03:52.913Z,1828
2018-07-10T07:04:33.416Z,1816
2018-07-10T07:05:13.937Z,1948
2018-07-10T07:05:54.473Z,1936
2018-07-10T07:06:35.001Z,1900
2018-07-10T07:07:15.523Z,1932
2018-07-10T07:07:56.095Z,1976
2018-07-10T07:08:36.583Z,2060
2018-07-10T07:09:17.108Z,2068
2018-07-10T07:09:57.661Z,2344
2018-07-10T07:10:38.161Z,2316
2018-07-10T07:11:18.684Z,2260
2018-07-10T07:11:59.211Z,2252
2018-07-10T07:12:39.753Z,1868
2018-07-10T07:13:20.281Z,1676
2018-07-10T07:14:00.803Z,1724
2018-07-10T07:14:41.339Z,1844
2018-07-10T07:15:21.886Z,1720
2018-07-10T07:16:02.444Z,1728
2018-07-10T07:16:42.942Z,1732
2018-07-10T07:17:23.468Z,1756
2018-07-10T07:18:03.993Z,1772
2018-07-10T07:18:44.524Z,1708
2018-07-10T07:19:25.045Z,1756
2018-07-10T07:20:05.571Z,1848
2018-07-10T07:20:46.105Z,1800
2018-07-10T07:21:26.636Z,1836
2018-07-10T07:22:07.159Z,2880
2018-07-10T07:22:47.682Z,2600
2018-07-10T07:23:28.208Z,1804
2018-07-10T07:24:08.709Z,2092
2018-07-10T07:24:49.198Z,1744
2018-07-10T07:25:29.713Z,1512
2018-07-10T07:26:10.234Z,1440
2018-07-10T07:26:50.792Z,1360
2018-07-10T07:27:31.371Z,1384
2018-07-10T07:28:11.850Z,1536
2018-07-10T07:28:52.419Z,1956
2018-07-10T07:29:32.883Z,1304
2018-07-10T07:30:13.393Z,1304
2018-07-10T07:30:53.917Z,1572
2018-07-10T07:31:34.435Z,2976
2018-07-10T07:32:14.973Z,2964
2018-07-10T07:32:55.508Z,2144
2018-07-10T07:33:36.026Z,3132
2018-07-10T07:34:16.549Z,2824
2018-07-10T07:34:57.151Z,2304
2018-07-10T07:35:37.605Z,1472
2018-07-10T07:36:18.132Z,1044
2018-07-10T07:36:58.660Z,1296
2018-07-10T07:37:39.195Z,660
2018-07-10T07:38:19.732Z,544
2018-07-10T07:39:00.277Z,436
2018-07-10T07:39:40.807Z,356
2018-07-10T07:40:21.351Z,288
2018-07-10T07:41:01.875Z,256
2018-07-10T07:41:42.406Z,224
2018-07-10T07:42:22.932Z,216
2018-07-10T07:43:03.485Z,232
2018-07-10T07:43:44.019Z,256
2018-07-10T07:44:24.577Z,320
2018-07-10T07:45:05.091Z,412
2018-07-10T07:45:45.631Z,540
2018-07-10T07:46:26.152Z,604
2018-07-10T07:47:06.674Z,620
2018-07-10T07:47:47.239Z,700
2018-07-10T07:48:27.739Z,744
2018-07-10T07:49:08.258Z,760
2018-07-10T07:49:48.782Z,768
2018-07-10T07:50:29.292Z,744
2018-07-10T07:51:09.837Z,720
2018-07-10T07:51:50.322Z,728
2018-07-10T07:52:30.835Z,740
2018-07-10T07:53:11.297Z,824
2018-07-10T07:53:51.827Z,872
2018-07-10T07:54:32.385Z,912
2018-07-10T07:55:12.865Z,952
2018-07-10T07:55:53.394Z,908
2018-07-10T07:56:33.931Z,900
2018-07-10T07:57:14.468Z,848
2018-07-10T07:57:54.990Z,812
2018-07-10T07:58:35.518Z,872
2018-07-10T07:59:16.045Z,900
2018-07-10T07:59:56.548Z,1000
2018-07-10T08:00:37.075Z,1144
2018-07-10T08:01:17.615Z,1288
2018-07-10T08:01:58.156Z,1404
2018-07-10T08:02:38.679Z,1596
2018-07-10T08:03:19.220Z,1736
2018-07-10T08:03:59.758Z,1784
2018-07-10T08:04:40.290Z,1964
2018-07-10T08:05:20.814Z,2208
2018-07-10T08:06:01.388Z,2032
2018-07-10T08:06:41.918Z,1856
2018-07-10T08:07:22.433Z,1616
2018-07-10T08:08:02.963Z,1700
2018-07-10T08:08:43.500Z,1932
2018-07-10T08:09:24.048Z,1936
2018-07-10T08:10:04.545Z,2052
2018-07-10T08:10:45.069Z,2204
2018-07-10T08:11:25.583Z,2480
2018-07-10T08:12:06.108Z,2564
2018-07-10T08:12:46.624Z,2588
2018-07-10T08:13:27.135Z,3056
2018-07-10T08:14:07.668Z,3588
2018-07-10T08:14:48.175Z,3312
2018-07-10T08:15:28.687Z,3412
2018-07-10T08:16:09.192Z,2520
2018-07-10T08:16:49.692Z,2232
2018-07-10T08:17:30.222Z,2232
2018-07-10T08:18:10.774Z,2216
2018-07-10T08:18:51.322Z,2744
2018-07-10T08:19:31.864Z,2376
2018-07-10T08:20:12.390Z,2908
2018-07-10T08:20:52.916Z,2624
2018-07-10T08:21:33.430Z,2584
2018-07-10T08:22:13.967Z,2336
2018-07-10T08:22:54.496Z,2040
2018-07-10T08:23:35.011Z,2032
2018-07-10T08:24:15.562Z,2352
2018-07-10T08:24:56.086Z,2252
2018-07-10T08:25:36.639Z,2160
2018-07-10T08:26:17.135Z,2096
2018-07-10T08:26:57.665Z,1920
2018-07-10T08:27:38.180Z,1728
2018-07-10T08:28:18.707Z,1556
2018-07-10T08:28:59.234Z,1476
2018-07-10T08:29:39.772Z,1416
2018-07-10T08:30:20.291Z,1408
2018-07-10T08:31:00.815Z,1848
2018-07-10T08:31:41.325Z,1788
2018-07-10T08:32:21.849Z,1872
2018-07-10T08:33:02.368Z,1864
2018-07-10T08:33:42.955Z,1968
2018-07-10T08:34:23.400Z,2160
2018-07-10T08:35:03.936Z,2232
2018-07-10T08:35:44.451Z,2460
2018-07-10T08:36:25.069Z,2740
2018-07-10T08:37:05.597Z,2596
2018-07-10T08:37:46.117Z,2492
2018-07-10T08:38:26.720Z,2324
2018-07-10T08:39:07.227Z,2316
2018-07-10T08:39:47.757Z,2004
2018-07-10T08:40:28.297Z,1960
2018-07-10T08:41:08.820Z,1788
2018-07-10T08:41:49.353Z,1696
2018-07-10T08:42:29.885Z,1584
2018-07-10T08:43:10.452Z,1584
2018-07-10T08:43:50.990Z,1544
2018-07-10T08:44:31.522Z,1512
2018-07-10T08:45:12.041Z,1896
2018-07-10T08:45:52.555Z,1980
2018-07-10T08:46:33.091Z,2180
2018-07-10T08:47:13.602Z,2224
2018-07-10T08:47:54.135Z,2204
2018-07-10T08:48:34.646Z,2244
2018-07-10T08:49:15.174Z,2268
2018-07-10T08:49:55.722Z,2156
2018-07-10T08:50:36.303Z,2188
2018-07-10T08:51:16.813Z,2028
2018-07-10T08:51:57.323Z,2012
2018-07-10T08:52:37.830Z,1912
2018-07-10T08:53:18.377Z,1952
2018-07-10T08:53:58.910Z,1904
2018-07-10T08:54:39.461Z,1924
2018-07-10T08:55:19.943Z,1684
2018-07-10T08:56:00.446Z,1516
2018-07-10T08:56:40.951Z,1524
2018-07-10T08:57:21.456Z,1540
2018-07-10T08:58:01.986Z,1696
2018-07-10T08:58:42.475Z,1752
2018-07-10T08:59:22.972Z,1812
2018-07-10T09:00:03.472Z,1848
2018-07-10T09:00:43.974Z,1788
2018-07-10T09:01:24.486Z,1700
2018-07-10T09:02:05.050Z,1488
2018-07-10T09:02:45.509Z,1308
2018-07-10T09:03:26.016Z,1208
2018-07-10T09:04:06.512Z,1188
2018-07-10T09:04:47.473Z,1200
2018-07-10T09:05:27.971Z,1160
2018-07-10T09:06:08.466Z,1092
2018-07-10T09:06:48.986Z,1044
2018-07-10T09:07:29.522Z,1064
2018-07-10T09:08:10.040Z,1088
2018-07-10T09:08:50.564Z,1080
2018-07-10T09:09:30.998Z,1080
2018-07-10T09:10:11.508Z,1092
2018-07-10T09:10:52.000Z,1152
2018-07-10T09:11:32.533Z,1108
2018-07-10T09:12:13.038Z,1068
2018-07-10T09:12:53.545Z,1072
2018-07-10T09:13:34.076Z,1136
2018-07-10T09:14:14.496Z,1160
2018-07-10T09:14:55.086Z,1348
2018-07-10T09:15:35.830Z,1368
2018-07-10T09:16:16.368Z,1700
2018-07-10T09:16:56.856Z,1888
2018-07-10T09:17:37.369Z,2144
2018-07-10T09:18:17.968Z,2072
2018-07-10T09:18:58.393Z,2104
2018-07-10T09:19:38.890Z,2016
2018-07-10T09:20:19.380Z,1916
2018-07-10T09:20:59.958Z,1608
2018-07-10T09:21:40.465Z,1372
2018-07-10T09:22:20.941Z,1184
2018-07-10T09:23:01.437Z,1108
2018-07-10T09:23:41.975Z,1024
2018-07-10T09:24:22.494Z,984
2018-07-10T09:25:03.030Z,976
2018-07-10T09:25:43.533Z,968
2018-07-10T09:26:24.002Z,984
2018-07-10T09:27:04.478Z,976
2018-07-10T09:27:45.009Z,956
2018-07-10T09:28:25.561Z,948
2018-07-10T09:29:06.086Z,980
2018-07-10T09:29:46.640Z,912
2018-07-10T09:30:27.076Z,904
2018-07-10T09:31:07.625Z,896